Saint Thomas, Canada
Current Conditions -  °F | °C
As of 1:00 AM on Thursday 23 Oct 2014 (Local Time) from CYXU Reporting Station
Clear Clear  
Wind Chill: 34°   Ceiling: Unl
Heat Index: 39°   Visibility: 15mi
Dew Point: 36°   Wind: 8mph
Humidity: 87%   Direction: 10°N
Pressure: 30.23"   Gusts: NA
Location:  42.78°N, 81.18°W
Report Text: CYXU 230500Z 01007KT 15SM SKC 04/02 A3023 RMK SLP242
Loading
Personal Weather Stations






























Interactive Weather Map
Tropical Storm Tracking
New forecast layout! Learn more

10-Day Weather Forecast

Advertisements
Track Severe Weather on mobile